Glenoma, WA (98336)

7:45 PM PDT on September 17, 2014 (GMT -0700)
Lost Creek | Change Station
CLOSE
Current Station
Personal Weather Station
Location: Glenoma, WA
Elevation: 1119 ft
Nearby Weather Stations
4.0 Earthquake: Seabeck, Washington (16 hours ago)  

Elev 1119 ft 46.54 °N, 122.06 °W | Updated 10 seconds ago

Overcast
Overcast
63.1 °F
Feels Like 63.1 °F
N
1.1
Wind Variable Wind from NW
Gusts 2.9 mph

Today
High -- | Low -- °F
--% Chance of Precip.
Yesterday
High -- | Low -- °F
Precip. -- in
6:49 AM 7:15 PM
Waning Crescent, 31% visible
Pressure 29.76 in
Visibility 10.0 miles
Clouds Few 4100 ft
Few 5500 ft
Mostly Cloudy 7500 ft
Dew Point 59 °F
Humidity 86%
Rainfall 0.00 in
Snow Depth 0 in , 0 in , 0 in
UV 0 out of 12
Pollen 1.60 out of 12
Air Quality Not available.
Flu Activity Not available.
METAR KCLS 180235Z AUTO 00000KT 10SM FEW041 FEW055 BKN075 19/16 A2976 RMK AO2

More Conditions Fewer Conditions

Pressure 29.76 in
Visibility 10.0 miles
Clouds Few 4100 ft
Few 5500 ft
Mostly Cloudy 7500 ft
Dew Point 59 °F
Humidity 86%
Rainfall 0.00 in
Snow Depth 0 in , 0 in , 0 in
UV 0 out of 12
Pollen 1.60 out of 12
Air Quality Not available.
Flu Activity Not available.
METAR KCLS 180235Z AUTO 00000KT 10SM FEW041 FEW055 BKN075 19/16 A2976 RMK AO2

More Conditions Fewer Conditions

10-Day Weather Forecast

Almanac

Astronomy

Sep. 17, 2014 Rise Set
Actual Time 6:49 AM PDT 7:15 PM PDT
Civil Twilight 6:18 AM PDT 7:46 PM PDT
Nautical Twilight 5:42 AM PDT 8:21 PM PDT
Astronomical Twilight 5:05 AM PDT 8:58 PM PDT
Moon 12:38 AM PDT (9/17) 3:43 PM PDT (9/17)
Length of Visible Light 13h 27m
Length of Day
12h 26m
Tomorrow will be 3m 17s shorter.
Waning Crescent, 31% of the Moon is Illuminated
Today
Waning Crescent
Sep 24
New
Oct 1
First Quarter
Oct 8
Full
Oct 15
Last Quarter

Today's Extremes

State Highs State Lows

Community

WunderPhotos

Upload Photos

1,754,268 photos uploaded!

Nearby

Snow Depth

Station Depth Elevation
Alpine Meadows 0 in 3500 ft
Beaver Pass 0 in 3620 ft
Quartz Peak 0 in 4700 ft
Park Creek Ridge 0 in 4600 ft
Spruce Springs 0 in 5700 ft

Earthquake Activity

City Distance Mag. Time & Date
Seabeck, Washington 82 miles 4.0 3:06 AM PDT
2014-09-17
Morton, Washington 18 miles 3.0 5:43 AM PDT
2014-09-16
Minimum magnitude displayed is 2.5.

Coastal Water Temperatures

Place Temperature
No Stations Reporting

Nearby Weather Stations